createdAt,value
2017-03-11T00:00:06.749Z,23.74
2017-03-11T00:01:17.622Z,23.65
2017-03-11T00:02:28.340Z,23.55
2017-03-11T00:03:39.224Z,23.65
2017-03-11T00:04:50.071Z,23.55
2017-03-11T00:06:00.570Z,23.65
2017-03-11T00:07:11.005Z,23.65
2017-03-11T00:08:21.692Z,23.65
2017-03-11T00:09:32.554Z,23.65
2017-03-11T00:10:43.423Z,23.65
2017-03-11T00:11:53.878Z,23.55
2017-03-11T00:13:04.772Z,23.55
2017-03-11T00:14:15.478Z,23.55
2017-03-11T00:15:25.530Z,23.65
2017-03-11T00:16:36.395Z,23.55
2017-03-11T00:17:46.854Z,23.55
2017-03-11T00:18:56.935Z,23.65
2017-03-11T00:20:08.054Z,23.65
2017-03-11T00:21:17.713Z,23.65
2017-03-11T00:22:27.770Z,23.46
2017-03-11T00:23:37.818Z,23.46
2017-03-11T00:24:48.685Z,23.65
2017-03-11T00:25:59.376Z,23.65
2017-03-11T00:27:09.837Z,23.65
2017-03-11T00:28:20.720Z,23.46
2017-03-11T00:29:31.168Z,23.46
2017-03-11T00:30:42.057Z,23.55
2017-03-11T00:31:53.251Z,23.65
2017-03-11T00:33:04.128Z,23.46
2017-03-11T00:34:14.692Z,23.65
2017-03-11T00:35:25.192Z,23.36
2017-03-11T00:36:35.654Z,23.36
2017-03-11T00:37:46.797Z,23.46
2017-03-11T00:38:57.677Z,23.36
2017-03-11T00:40:08.112Z,23.46
2017-03-11T00:41:18.960Z,23.74
2017-03-11T00:42:29.822Z,23.46
2017-03-11T00:43:41.059Z,23.46
2017-03-11T00:44:51.930Z,23.16
2017-03-11T00:46:02.363Z,23.46
2017-03-11T00:47:12.812Z,23.16
2017-03-11T00:48:23.651Z,23.46
2017-03-11T00:49:34.432Z,23.07
2017-03-11T00:50:44.889Z,23.46
2017-03-11T00:51:55.353Z,23.26
2017-03-11T00:53:06.218Z,23.46
2017-03-11T00:54:16.515Z,23.07
2017-03-11T00:55:26.921Z,23.26
2017-03-11T00:56:37.772Z,23.07
2017-03-11T00:57:48.608Z,23.16
2017-03-11T00:58:59.076Z,23.16
2017-03-11T01:00:09.533Z,23.16
2017-03-11T01:01:20.747Z,23.07
2017-03-11T01:02:31.696Z,23.07
2017-03-11T01:03:42.607Z,23.26
2017-03-11T01:04:53.488Z,23.16
2017-03-11T01:06:03.932Z,23.16
2017-03-11T01:07:15.045Z,23.26
2017-03-11T01:08:25.914Z,23.16
2017-03-11T01:09:36.759Z,23.26
2017-03-11T01:10:47.210Z,23.07
2017-03-11T01:11:58.045Z,23.16
2017-03-11T01:13:09.152Z,23.07
2017-03-11T01:14:20.009Z,23.26
2017-03-11T01:15:30.867Z,23.16
2017-03-11T01:16:41.331Z,23.26
2017-03-11T01:17:52.207Z,23.26
2017-03-11T01:19:03.335Z,23.16
2017-03-11T01:20:13.782Z,23.15
2017-03-11T01:21:24.223Z,23.16
2017-03-11T01:22:35.078Z,23.16
2017-03-11T01:23:45.927Z,23.26
2017-03-11T01:24:57.056Z,23.07
2017-03-11T01:26:07.890Z,23.26
2017-03-11T01:27:18.742Z,23.16
2017-03-11T01:28:28.796Z,23.16
2017-03-11T01:29:39.264Z,23.16
2017-03-11T01:30:50.365Z,23.25
2017-03-11T01:32:01.250Z,23.16
2017-03-11T01:33:12.096Z,23.26
2017-03-11T01:34:22.973Z,23.16
2017-03-11T01:35:33.453Z,23.26
2017-03-11T01:36:44.547Z,23.16
2017-03-11T01:37:55.392Z,23.26
2017-03-11T01:39:06.217Z,23.26
2017-03-11T01:40:17.056Z,23.26
2017-03-11T01:41:27.920Z,23.26
2017-03-11T01:42:38.218Z,23.26
2017-03-11T01:43:49.085Z,23.16
2017-03-11T01:44:59.975Z,23.26
2017-03-11T01:46:10.121Z,23.26
2017-03-11T01:47:20.998Z,23.26
2017-03-11T01:48:32.093Z,23.16
2017-03-11T01:49:42.940Z,23.16
2017-03-11T01:50:53.782Z,23.16
2017-03-11T01:52:04.634Z,23.26
2017-03-11T01:53:15.475Z,23.16
2017-03-11T01:54:25.783Z,23.26
2017-03-11T01:55:36.268Z,23.26
2017-03-11T01:56:47.120Z,23.15
2017-03-11T01:57:57.968Z,23.25
2017-03-11T01:59:08.431Z,23.25
2017-03-11T02:00:19.514Z,23.26
2017-03-11T02:01:29.962Z,23.26
2017-03-11T02:02:40.815Z,23.16
2017-03-11T02:03:51.692Z,23.26
2017-03-11T02:05:02.134Z,23.26
2017-03-11T02:06:12.826Z,23.26
2017-03-11T02:07:22.899Z,23.16
2017-03-11T02:08:33.738Z,23.26
2017-03-11T02:09:44.576Z,23.25
2017-03-11T02:10:55.446Z,23.25
2017-03-11T02:12:06.557Z,23.26
2017-03-11T02:13:17.013Z,23.26
2017-03-11T02:14:27.485Z,23.36
2017-03-11T02:15:38.342Z,23.25
2017-03-11T02:16:49.235Z,23.26
2017-03-11T02:18:00.375Z,23.26
2017-03-11T02:19:10.992Z,23.26
2017-03-11T02:20:21.861Z,23.25
2017-03-11T02:21:32.729Z,23.26
2017-03-11T02:22:43.596Z,23.26
2017-03-11T02:23:54.275Z,23.25
2017-03-11T02:25:05.126Z,23.25
2017-03-11T02:26:15.974Z,23.26
2017-03-11T02:27:26.438Z,23.25
2017-03-11T02:28:36.481Z,23.26
2017-03-11T02:29:47.187Z,23.26
2017-03-11T02:30:57.642Z,23.26
2017-03-11T02:32:08.095Z,23.25
2017-03-11T02:33:18.128Z,23.26
2017-03-11T02:34:29.006Z,23.26
2017-03-11T02:35:39.303Z,23.26
2017-03-11T02:36:50.157Z,23.26
2017-03-11T02:38:01.027Z,23.26
2017-03-11T02:39:11.473Z,23.36
2017-03-11T02:40:21.927Z,23.26
2017-03-11T02:41:32.644Z,23.26
2017-03-11T02:42:43.495Z,23.26
2017-03-11T02:43:54.346Z,23.26
2017-03-11T02:45:05.204Z,23.26
2017-03-11T02:46:16.061Z,23.26
2017-03-11T02:47:27.206Z,23.25
2017-03-11T02:48:37.645Z,23.26
2017-03-11T02:49:48.515Z,23.26
2017-03-11T02:50:58.970Z,23.26
2017-03-11T02:52:09.408Z,23.16
2017-03-11T02:53:20.128Z,23.36
2017-03-11T02:54:30.989Z,23.36
2017-03-11T02:55:41.033Z,23.35
2017-03-11T02:56:51.882Z,23.25
2017-03-11T02:58:02.730Z,23.26
2017-03-11T02:59:13.481Z,23.54
2017-03-11T03:00:24.317Z,23.15
2017-03-11T03:01:34.755Z,23.26
2017-03-11T03:02:44.813Z,23.46
2017-03-11T03:03:55.255Z,22.96
2017-03-11T03:05:05.942Z,23.46
2017-03-11T03:06:16.448Z,23.26
2017-03-11T03:07:27.306Z,23.55
2017-03-11T03:08:37.747Z,23.35
2017-03-11T03:09:48.186Z,23.25
2017-03-11T03:10:59.328Z,23.35
2017-03-11T03:12:10.198Z,23.26
2017-03-11T03:13:20.663Z,23.26
2017-03-11T03:14:31.498Z,23.35
2017-03-11T03:15:41.984Z,23.25
2017-03-11T03:16:52.662Z,23.44
2017-03-11T03:18:03.158Z,23.25
2017-03-11T03:19:13.372Z,23.44
2017-03-11T03:20:23.402Z,23.46
2017-03-11T03:21:33.894Z,23.44
2017-03-11T03:22:44.173Z,22.97
2017-03-11T03:23:55.021Z,22.96
2017-03-11T03:25:05.862Z,22.96
2017-03-11T03:26:16.304Z,23.44
2017-03-11T03:27:26.725Z,22.86
2017-03-11T03:28:37.431Z,23.44
2017-03-11T03:29:48.275Z,22.96
2017-03-11T03:30:59.125Z,22.96
2017-03-11T03:32:09.961Z,23.44
2017-03-11T03:33:20.026Z,23.44
2017-03-11T03:34:31.187Z,23.35
2017-03-11T03:35:42.567Z,23.44
2017-03-11T03:36:53.434Z,23.35
2017-03-11T03:38:03.879Z,23.36
2017-03-11T03:39:14.320Z,23.44
2017-03-11T03:40:25.440Z,23.44
2017-03-11T03:41:35.488Z,23.35
2017-03-11T03:42:46.339Z,23.44
2017-03-11T03:43:57.200Z,23.15
2017-03-11T03:45:08.032Z,23.35
2017-03-11T03:46:18.745Z,22.96
2017-03-11T03:47:29.181Z,22.86
2017-03-11T03:48:40.022Z,22.96
2017-03-11T03:49:50.490Z,22.96
2017-03-11T03:51:01.351Z,22.86
2017-03-11T03:52:12.442Z,22.86
2017-03-11T03:53:23.283Z,22.96
2017-03-11T03:54:33.725Z,23.15
2017-03-11T03:55:44.585Z,23.44
2017-03-11T03:56:55.012Z,22.86
2017-03-11T03:58:05.740Z,23.25
2017-03-11T03:59:16.589Z,23.25
2017-03-11T04:00:27.015Z,22.96
2017-03-11T04:01:37.457Z,22.96
2017-03-11T04:02:48.304Z,23.25
2017-03-11T04:03:59.040Z,22.86
2017-03-11T04:05:09.488Z,23.16
2017-03-11T04:06:20.336Z,23.06
2017-03-11T04:07:31.171Z,23.06
2017-03-11T04:08:42.022Z,23.06
2017-03-11T04:09:53.125Z,22.96
2017-03-11T04:11:03.974Z,22.86
2017-03-11T04:12:14.407Z,22.96
2017-03-11T04:13:24.829Z,22.97
2017-03-11T04:14:34.883Z,22.86
2017-03-11T04:15:45.584Z,22.96
2017-03-11T04:16:56.026Z,22.86
2017-03-11T04:18:06.474Z,23.07
2017-03-11T04:19:17.327Z,23.15
2017-03-11T04:20:28.192Z,23.06
2017-03-11T04:21:38.934Z,23.06
2017-03-11T04:22:49.764Z,23.06
2017-03-11T04:23:59.812Z,23.06
2017-03-11T04:25:10.698Z,23.06
2017-03-11T04:26:21.139Z,22.96
2017-03-11T04:27:31.448Z,23.06
2017-03-11T04:28:41.092Z,23.06
2017-03-11T04:29:51.936Z,22.96
2017-03-11T04:31:02.393Z,23.15
2017-03-11T04:32:13.240Z,22.86
2017-03-11T04:33:23.946Z,22.96
2017-03-11T04:34:34.805Z,23.06
2017-03-11T04:35:45.638Z,23.06
2017-03-11T04:36:55.284Z,23.06
2017-03-11T04:38:05.764Z,22.96
2017-03-11T04:39:16.451Z,22.96
2017-03-11T04:40:26.093Z,23.15
2017-03-11T04:41:36.932Z,23.15
2017-03-11T04:42:47.016Z,23.06
2017-03-11T04:43:57.856Z,23.06
2017-03-11T04:45:08.950Z,23.06
2017-03-11T04:46:19.821Z,23.15
2017-03-11T04:47:30.688Z,23.06
2017-03-11T04:48:41.568Z,23.06
2017-03-11T04:49:51.637Z,22.96
2017-03-11T04:51:02.346Z,23.06
2017-03-11T04:52:13.201Z,23.06
2017-03-11T04:53:24.068Z,23.15
2017-03-11T04:54:34.499Z,23.06
2017-03-11T04:55:44.539Z,23.06
2017-03-11T04:56:55.243Z,23.15
2017-03-11T04:58:06.102Z,23.06
2017-03-11T04:59:16.560Z,23.06
2017-03-11T05:00:26.612Z,23.06
2017-03-11T05:01:37.063Z,23.06
2017-03-11T05:02:47.770Z,22.96
2017-03-11T05:03:58.628Z,23.06
2017-03-11T05:05:09.093Z,23.15
2017-03-11T05:06:19.949Z,23.06
2017-03-11T05:07:30.810Z,22.96
2017-03-11T05:08:41.911Z,23.06
2017-03-11T05:09:52.775Z,22.96
2017-03-11T05:11:03.614Z,23.15
2017-03-11T05:12:14.499Z,23.06
2017-03-11T05:13:25.354Z,22.96
2017-03-11T05:14:36.452Z,22.86
2017-03-11T05:15:47.568Z,22.96
2017-03-11T05:16:58.026Z,22.96
2017-03-11T05:18:08.879Z,22.77
2017-03-11T05:19:18.943Z,22.67
2017-03-11T05:20:30.045Z,22.86
2017-03-11T05:21:40.489Z,22.77
2017-03-11T05:22:50.922Z,22.77
2017-03-11T05:24:01.782Z,22.67
2017-03-11T05:25:12.214Z,22.67
2017-03-11T05:26:22.941Z,22.67
2017-03-11T05:27:32.990Z,22.67
2017-03-11T05:28:43.831Z,22.67
2017-03-11T05:29:53.860Z,22.58
2017-03-11T05:31:03.894Z,22.48
2017-03-11T05:32:14.566Z,22.48
2017-03-11T05:33:25.018Z,22.48
2017-03-11T05:34:35.472Z,22.67
2017-03-11T05:35:46.326Z,22.67
2017-03-11T05:36:56.778Z,22.67
2017-03-11T05:38:07.079Z,22.29
2017-03-11T05:39:17.535Z,22.48
2017-03-11T05:40:28.362Z,22.19
2017-03-11T05:41:38.803Z,22
2017-03-11T05:42:48.841Z,22
2017-03-11T05:43:59.526Z,22.19
2017-03-11T05:45:09.581Z,22.19
2017-03-11T05:46:20.045Z,22.19
2017-03-11T05:47:30.490Z,22
2017-03-11T05:48:40.515Z,22
2017-03-11T05:49:51.619Z,21.91
2017-03-11T05:51:01.667Z,21.91
2017-03-11T05:52:12.128Z,21.91
2017-03-11T05:53:22.577Z,21.91
2017-03-11T05:54:33.031Z,22.09
2017-03-11T05:55:43.722Z,22.09
2017-03-11T05:56:54.560Z,22.09
2017-03-11T05:58:05.401Z,21.91
2017-03-11T05:59:16.243Z,22
2017-03-11T06:00:26.278Z,22
2017-03-11T06:01:37.689Z,22
2017-03-11T06:02:48.151Z,22.09
2017-03-11T06:03:59.021Z,22
2017-03-11T06:05:09.456Z,21.91
2017-03-11T06:06:19.505Z,21.91
2017-03-11T06:07:29.392Z,21.91
2017-03-11T06:08:39.840Z,21.91
2017-03-11T06:09:50.317Z,21.91
2017-03-11T06:11:01.165Z,21.91
2017-03-11T06:12:12.016Z,21.91
2017-03-11T06:13:23.114Z,22.09
2017-03-11T06:14:33.555Z,21.81
2017-03-11T06:15:44.012Z,21.71
2017-03-11T06:16:54.886Z,22
2017-03-11T06:18:05.333Z,21.91
2017-03-11T06:19:15.651Z,21.91
2017-03-11T06:20:25.674Z,22.09
2017-03-11T06:21:36.532Z,21.91
2017-03-11T06:22:47.388Z,21.91
2017-03-11T06:23:57.817Z,21.71
2017-03-11T06:25:08.938Z,21.81
2017-03-11T06:26:19.403Z,21.52
2017-03-11T06:27:29.450Z,21.52
2017-03-11T06:28:40.313Z,21.61
2017-03-11T06:29:50.777Z,21.71
2017-03-11T06:31:01.895Z,21.52
2017-03-11T06:32:12.752Z,21.52
2017-03-11T06:33:23.212Z,21.61
2017-03-11T06:34:33.642Z,21.61
2017-03-11T06:35:44.512Z,21.61
2017-03-11T06:36:54.826Z,21.71
2017-03-11T06:38:05.280Z,21.61
2017-03-11T06:39:16.127Z,21.81
2017-03-11T06:40:26.999Z,21.61
2017-03-11T06:41:37.450Z,21.71
2017-03-11T06:42:48.172Z,21.71
2017-03-11T06:43:58.611Z,21.81
2017-03-11T06:45:09.091Z,21.42
2017-03-11T06:46:19.952Z,21.71
2017-03-11T06:47:30.400Z,21.61
2017-03-11T06:48:41.097Z,21.81
2017-03-11T06:49:51.942Z,21.71
2017-03-11T06:51:02.789Z,21.71
2017-03-11T06:52:13.632Z,21.71
2017-03-11T06:53:24.073Z,21.71
2017-03-11T06:54:34.377Z,21.71
2017-03-11T06:55:44.879Z,21.61
2017-03-11T06:56:55.712Z,21.81
2017-03-11T06:58:06.589Z,21.61
2017-03-11T06:59:17.049Z,21.71
2017-03-11T07:00:27.803Z,21.81
2017-03-11T07:01:38.659Z,21.61
2017-03-11T07:02:49.514Z,21.81
2017-03-11T07:04:00.383Z,21.71
2017-03-11T07:05:10.422Z,21.52
2017-03-11T07:06:21.641Z,21.71
2017-03-11T07:07:32.093Z,21.71
2017-03-11T07:08:42.563Z,21.71
2017-03-11T07:09:52.659Z,21.71
2017-03-11T07:11:03.100Z,21.81
2017-03-11T07:12:13.804Z,21.61
2017-03-11T07:13:24.694Z,21.71
2017-03-11T07:14:35.164Z,21.81
2017-03-11T07:15:45.616Z,21.81
2017-03-11T07:16:55.686Z,21.71
2017-03-11T07:18:06.393Z,21.81
2017-03-11T07:19:16.444Z,21.81
2017-03-11T07:20:27.305Z,21.61
2017-03-11T07:21:37.782Z,21.81
2017-03-11T07:22:47.838Z,21.71
2017-03-11T07:23:58.965Z,21.61
2017-03-11T07:25:09.442Z,21.91
2017-03-11T07:26:20.299Z,21.61
2017-03-11T07:27:31.268Z,21.71
2017-03-11T07:28:42.101Z,21.81
2017-03-11T07:29:52.398Z,21.81
2017-03-11T07:31:03.333Z,21.61
2017-03-11T07:32:13.791Z,21.81
2017-03-11T07:33:23.842Z,21.61
2017-03-11T07:34:34.291Z,21.61
2017-03-11T07:35:44.247Z,21.71
2017-03-11T07:36:55.132Z,21.61
2017-03-11T07:38:05.163Z,21.61
2017-03-11T07:39:16.062Z,21.61
2017-03-11T07:40:26.526Z,21.71
2017-03-11T07:41:37.636Z,21.81
2017-03-11T07:42:47.703Z,21.61
2017-03-11T07:43:58.555Z,21.91
2017-03-11T07:45:09.022Z,21.71
2017-03-11T07:46:19.075Z,21.61
2017-03-11T07:47:29.399Z,21.91
2017-03-11T07:48:39.857Z,21.71
2017-03-11T07:49:49.908Z,21.71
2017-03-11T07:51:00.401Z,21.91
2017-03-11T07:52:11.351Z,21.81
2017-03-11T07:53:22.461Z,21.61
2017-03-11T07:54:33.323Z,21.62
2017-03-11T07:55:44.177Z,21.61
2017-03-11T07:56:55.044Z,21.81
2017-03-11T07:58:05.915Z,21.91
2017-03-11T07:59:17.021Z,21.52
2017-03-11T08:00:26.699Z,21.61
2017-03-11T08:01:37.568Z,21.61
2017-03-11T08:02:47.607Z,21.61
2017-03-11T08:03:58.090Z,21.61
2017-03-11T08:05:08.830Z,21.61
2017-03-11T08:06:18.886Z,21.71
2017-03-11T08:07:29.328Z,21.71
2017-03-11T08:08:39.393Z,21.81
2017-03-11T08:09:50.129Z,21.91
2017-03-11T08:11:00.832Z,21.71
2017-03-11T08:12:11.674Z,21.81
2017-03-11T08:13:21.773Z,22
2017-03-11T08:14:32.249Z,21.91
2017-03-11T08:15:42.685Z,21.81
2017-03-11T08:16:53.361Z,22
2017-03-11T08:18:04.224Z,22
2017-03-11T08:19:15.069Z,21.81
2017-03-11T08:20:25.969Z,22.09
2017-03-11T08:21:36.010Z,21.91
2017-03-11T08:22:46.717Z,21.81
2017-03-11T08:23:55.524Z,22.09
2017-03-11T08:25:06.312Z,21.91
2017-03-11T08:26:16.689Z,21.91
2017-03-11T08:27:27.057Z,21.91
2017-03-11T08:28:37.658Z,21.92
2017-03-11T08:29:48.029Z,21.91
2017-03-11T08:30:58.765Z,22
2017-03-11T08:32:09.524Z,21.91
2017-03-11T08:33:19.885Z,22.01
2017-03-11T08:34:30.885Z,21.82
2017-03-11T08:35:41.639Z,22.01
2017-03-11T08:36:51.598Z,22
2017-03-11T08:38:02.360Z,21.92
2017-03-11T08:39:12.308Z,22.01
2017-03-11T08:40:22.524Z,22.11
2017-03-11T08:41:32.884Z,22.11
2017-03-11T08:42:43.265Z,22.01
2017-03-11T08:43:54.022Z,22
2017-03-11T08:45:04.372Z,22.01
2017-03-11T08:46:15.390Z,22.01
2017-03-11T08:47:25.338Z,22.2
2017-03-11T08:48:36.094Z,21.92
2017-03-11T08:49:45.653Z,22.3
2017-03-11T08:50:55.226Z,22.2
2017-03-11T08:52:05.855Z,22.39
2017-03-11T08:53:16.609Z,22.3
2017-03-11T08:54:25.777Z,22.11
2017-03-11T08:55:35.762Z,22.2
2017-03-11T08:56:46.513Z,22.11
2017-03-11T08:57:57.495Z,22.11
2017-03-11T08:59:08.260Z,22.19
2017-03-11T09:00:18.662Z,22.01
2017-03-11T09:01:29.036Z,22.3
2017-03-11T09:02:39.774Z,22.11
2017-03-11T09:03:50.373Z,22.2
2017-03-11T09:05:00.730Z,22.19
2017-03-11T09:06:11.092Z,21.92
2017-03-11T09:07:21.831Z,21.82
2017-03-11T09:08:32.612Z,21.92
2017-03-11T09:09:42.052Z,21.92
2017-03-11T09:10:52.815Z,21.91
2017-03-11T09:12:03.204Z,21.92
2017-03-11T09:13:13.567Z,21.81
2017-03-11T09:14:24.330Z,21.82
2017-03-11T09:15:35.418Z,21.91
2017-03-11T09:16:45.783Z,22
2017-03-11T09:17:56.557Z,22.01
2017-03-11T09:19:07.333Z,22.01
2017-03-11T09:20:17.751Z,22.01
2017-03-11T09:21:28.794Z,22.11
2017-03-11T09:22:39.565Z,21.92
2017-03-11T09:23:49.910Z,22.11
2017-03-11T09:25:00.267Z,21.92
2017-03-11T09:26:11.035Z,21.92
2017-03-11T09:27:21.702Z,22.11
2017-03-11T09:28:32.074Z,21.92
2017-03-11T09:29:42.848Z,22.01
2017-03-11T09:30:53.704Z,22.01
2017-03-11T09:32:04.477Z,21.92
2017-03-11T09:33:15.501Z,22.01
2017-03-11T09:34:25.866Z,22.2
2017-03-11T09:35:36.607Z,22.01
2017-03-11T09:36:46.948Z,22.01
2017-03-11T09:37:56.938Z,22.01
2017-03-11T09:39:08.004Z,22.01
2017-03-11T09:40:18.772Z,21.92
2017-03-11T09:41:29.163Z,21.92
2017-03-11T09:42:39.501Z,21.92
2017-03-11T09:43:50.273Z,22.01
2017-03-11T09:45:00.901Z,22.2
2017-03-11T09:46:11.649Z,22.01
2017-03-11T09:47:22.416Z,22.11
2017-03-11T09:48:31.963Z,22.01
2017-03-11T09:49:42.709Z,22.2
2017-03-11T09:50:53.716Z,22.2
2017-03-11T09:52:03.681Z,22.11
2017-03-11T09:53:14.042Z,22.11
2017-03-11T09:54:24.829Z,22.11
2017-03-11T09:55:34.800Z,22.01
2017-03-11T09:56:45.393Z,22.01
2017-03-11T09:57:56.157Z,22.11
2017-03-11T09:59:06.932Z,22.2
2017-03-11T10:00:17.280Z,22.01
2017-03-11T10:01:28.053Z,22.11
2017-03-11T10:02:38.686Z,22.2
2017-03-11T10:03:49.454Z,22.01
2017-03-11T10:04:59.841Z,21.92
2017-03-11T10:06:10.596Z,21.92
2017-03-11T10:07:21.358Z,21.92
2017-03-11T10:08:32.362Z,22.01
2017-03-11T10:09:43.130Z,21.92
2017-03-11T10:10:53.886Z,22.11
2017-03-11T10:12:04.666Z,22.01
2017-03-11T10:13:15.064Z,22.2
2017-03-11T10:14:25.671Z,22.2
2017-03-11T10:15:35.646Z,22.3
2017-03-11T10:16:46.036Z,22.2
2017-03-11T10:17:56.392Z,22.01
2017-03-11T10:19:06.756Z,22.01
2017-03-11T10:20:17.412Z,22.3
2017-03-11T10:21:27.806Z,22.11
2017-03-11T10:22:38.165Z,22.3
2017-03-11T10:23:48.123Z,22.11
2017-03-11T10:24:58.490Z,22.39
2017-03-11T10:26:08.710Z,22.2
2017-03-11T10:27:19.045Z,22.11
2017-03-11T10:28:29.387Z,22.3
2017-03-11T10:29:40.101Z,22.11
2017-03-11T10:30:49.694Z,22.11
2017-03-11T10:31:59.520Z,22.2
2017-03-11T10:33:09.851Z,22.3
2017-03-11T10:34:20.200Z,22.11
2017-03-11T10:35:30.920Z,22.3
2017-03-11T10:36:41.691Z,21.92
2017-03-11T10:37:52.290Z,22.11
2017-03-11T10:39:01.867Z,21.92
2017-03-11T10:40:11.826Z,22.11
2017-03-11T10:41:22.193Z,22.01
2017-03-11T10:42:32.539Z,22.01
2017-03-11T10:43:43.181Z,21.92
2017-03-11T10:44:53.505Z,21.92
2017-03-11T10:46:03.444Z,22.01
2017-03-11T10:47:13.766Z,21.82
2017-03-11T10:48:23.713Z,21.82
2017-03-11T10:49:34.681Z,21.92
2017-03-11T10:50:44.622Z,21.92
2017-03-11T10:51:54.184Z,21.82
2017-03-11T10:53:04.527Z,21.72
2017-03-11T10:54:14.080Z,21.92
2017-03-11T10:55:24.663Z,22.01
2017-03-11T10:56:33.798Z,21.92
2017-03-11T10:57:43.734Z,22.3
2017-03-11T10:58:54.476Z,21.62
2017-03-11T11:00:04.828Z,21.62
2017-03-11T11:01:15.408Z,21.62
2017-03-11T11:02:26.161Z,21.62
2017-03-11T11:03:36.887Z,21.62
2017-03-11T11:04:47.644Z,21.53
2017-03-11T11:05:58.368Z,21.53
2017-03-11T11:07:08.976Z,21.92
2017-03-11T11:08:19.710Z,21.82
2017-03-11T11:09:30.449Z,21.72
2017-03-11T11:10:40.788Z,21.62
2017-03-11T11:11:51.619Z,21.82
2017-03-11T11:13:01.811Z,21.62
2017-03-11T11:14:12.154Z,21.72
2017-03-11T11:15:22.093Z,21.82
2017-03-11T11:16:32.048Z,21.72
2017-03-11T11:17:42.771Z,21.82
2017-03-11T11:18:53.353Z,21.53
2017-03-11T11:20:03.291Z,21.62
2017-03-11T11:21:13.668Z,21.44
2017-03-11T11:22:23.207Z,21.53
2017-03-11T11:23:33.570Z,21.62
2017-03-11T11:24:44.170Z,21.62
2017-03-11T11:25:54.277Z,21.53
2017-03-11T11:27:04.222Z,21.44
2017-03-11T11:28:15.001Z,21.53
2017-03-11T11:29:25.760Z,21.62
2017-03-11T11:30:36.395Z,21.82
2017-03-11T11:31:47.187Z,21.82
2017-03-11T11:32:57.962Z,21.53
2017-03-11T11:34:08.339Z,21.72
2017-03-11T11:35:19.101Z,21.72
2017-03-11T11:36:29.758Z,21.72
2017-03-11T11:37:40.138Z,21.72
2017-03-11T11:38:50.506Z,21.62
2017-03-11T11:40:00.871Z,21.92
2017-03-11T11:41:10.859Z,21.72
2017-03-11T11:42:21.112Z,21.72
2017-03-11T11:43:31.121Z,21.44
2017-03-11T11:44:41.493Z,21.44
2017-03-11T11:45:51.853Z,21.62
2017-03-11T11:47:02.603Z,21.44
2017-03-11T11:48:13.204Z,21.53
2017-03-11T11:49:23.970Z,21.53
2017-03-11T11:50:34.753Z,21.34
2017-03-11T11:51:44.700Z,21.44
2017-03-11T11:52:55.450Z,21.34
2017-03-11T11:54:06.062Z,21.24
2017-03-11T11:55:16.421Z,21.34
2017-03-11T11:56:25.978Z,21.24
2017-03-11T11:57:36.352Z,21.34
2017-03-11T11:58:47.091Z,21.34
2017-03-11T11:59:57.719Z,21.34
2017-03-11T12:01:08.105Z,21.15
2017-03-11T12:02:18.133Z,21.15
2017-03-11T12:03:28.884Z,21.15
2017-03-11T12:04:39.257Z,21.24
2017-03-11T12:05:49.861Z,21.24
2017-03-11T12:07:00.638Z,21.24
2017-03-11T12:08:11.015Z,21.44
2017-03-11T12:09:20.971Z,21.34
2017-03-11T12:10:31.381Z,21.34
2017-03-11T12:11:41.983Z,21.24
2017-03-11T12:12:52.326Z,21.34
2017-03-11T12:14:02.675Z,21.34
2017-03-11T12:15:13.043Z,21.24
2017-03-11T12:16:23.819Z,21.44
2017-03-11T12:17:34.451Z,21.44
2017-03-11T12:18:44.050Z,21.05
2017-03-11T12:19:54.409Z,21.44
2017-03-11T12:21:04.758Z,21.05
2017-03-11T12:22:14.738Z,21.24
2017-03-11T12:23:25.785Z,21.24
2017-03-11T12:24:35.744Z,21.15
2017-03-11T12:25:45.721Z,21.24
2017-03-11T12:26:56.478Z,21.24
2017-03-11T12:28:06.844Z,21.15
2017-03-11T12:29:17.454Z,21.15
2017-03-11T12:30:27.807Z,21.24
2017-03-11T12:31:38.172Z,21.24
2017-03-11T12:32:48.553Z,21.15
2017-03-11T12:33:58.924Z,21.15
2017-03-11T12:35:09.622Z,21.15
2017-03-11T12:36:20.393Z,21.15
2017-03-11T12:37:30.772Z,21.15
2017-03-11T12:38:41.568Z,21.15
2017-03-11T12:39:52.325Z,21.15
2017-03-11T12:41:03.028Z,21.15
2017-03-11T12:42:13.771Z,21.24
2017-03-11T12:43:24.505Z,21.15
2017-03-11T12:44:34.882Z,21.15
2017-03-11T12:45:45.216Z,21.15
2017-03-11T12:46:55.827Z,21.15
2017-03-11T12:48:06.585Z,21.24
2017-03-11T12:49:16.532Z,21.05
2017-03-11T12:50:26.879Z,21.44
2017-03-11T12:51:36.854Z,21.24
2017-03-11T12:52:46.281Z,21.25
2017-03-11T12:53:55.832Z,21.44
2017-03-11T12:55:05.426Z,21.34
2017-03-11T12:56:15.779Z,21.24
2017-03-11T12:57:26.124Z,21.34
2017-03-11T12:58:36.345Z,21.34
2017-03-11T12:59:46.696Z,21.44
2017-03-11T13:00:57.116Z,21.34
2017-03-11T13:02:07.071Z,21.34
2017-03-11T13:03:17.431Z,21.44
2017-03-11T13:04:28.020Z,21.34
2017-03-11T13:05:38.000Z,21.34
2017-03-11T13:06:47.177Z,21.35
2017-03-11T13:07:56.732Z,21.24
2017-03-11T13:09:07.084Z,21.24
2017-03-11T13:10:21.846Z,21.24
2017-03-11T13:11:31.835Z,21.24
2017-03-11T13:12:42.168Z,21.15
2017-03-11T13:13:51.711Z,21.24
2017-03-11T13:15:01.655Z,21.15
2017-03-11T13:16:11.853Z,21.24
2017-03-11T13:17:22.627Z,21.15
2017-03-11T13:18:31.792Z,21.15
2017-03-11T13:19:42.121Z,21.15
2017-03-11T13:20:52.454Z,21.15
2017-03-11T13:22:03.489Z,21.15
2017-03-11T13:23:13.427Z,21.15
2017-03-11T13:24:23.753Z,21.24
2017-03-11T13:25:33.718Z,21.34
2017-03-11T13:26:43.708Z,21.24
2017-03-11T13:27:54.357Z,21.24
2017-03-11T13:29:04.704Z,21.34
2017-03-11T13:30:15.049Z,21.34
2017-03-11T13:31:25.383Z,20.76
2017-03-11T13:32:36.162Z,20.95
2017-03-11T13:33:46.384Z,20.76
2017-03-11T13:34:57.114Z,20.76
2017-03-11T13:36:07.463Z,20.86
2017-03-11T13:37:17.424Z,20.76
2017-03-11T13:38:26.575Z,20.86
2017-03-11T13:39:36.409Z,20.86
2017-03-11T13:40:46.371Z,20.76
2017-03-11T13:41:56.325Z,20.86
2017-03-11T13:43:06.656Z,20.77
2017-03-11T13:44:16.603Z,20.67
2017-03-11T13:45:27.254Z,20.86
2017-03-11T13:46:37.187Z,20.86
2017-03-11T13:47:47.909Z,21.05
2017-03-11T13:48:57.082Z,20.95
2017-03-11T13:50:07.085Z,20.86
2017-03-11T13:51:17.311Z,20.95
2017-03-11T13:52:28.114Z,20.95
2017-03-11T13:53:38.960Z,20.86
2017-03-11T13:54:49.725Z,20.67
2017-03-11T13:56:00.497Z,20.67
2017-03-11T13:57:11.095Z,21.05
2017-03-11T13:58:21.893Z,21.05
2017-03-11T13:59:32.266Z,20.95
2017-03-11T14:00:42.616Z,21.15
2017-03-11T14:01:52.187Z,21.05
2017-03-11T14:03:02.460Z,21.05
2017-03-11T14:04:12.828Z,20.67
2017-03-11T14:05:23.596Z,21.24
2017-03-11T14:06:34.365Z,21.15
2017-03-11T14:07:45.126Z,21.05
2017-03-11T14:08:56.128Z,20.95
2017-03-11T14:10:06.889Z,20.67
2017-03-11T14:11:17.660Z,21.05
2017-03-11T14:12:28.445Z,20.86
2017-03-11T14:13:39.209Z,20.67
2017-03-11T14:14:50.284Z,20.76
2017-03-11T14:16:00.639Z,20.86
2017-03-11T14:17:11.414Z,20.76
2017-03-11T14:18:21.792Z,21.15
2017-03-11T14:19:32.559Z,21.34
2017-03-11T14:20:43.686Z,21.15
2017-03-11T14:21:54.461Z,21.15
2017-03-11T14:23:04.838Z,21.05
2017-03-11T14:24:15.575Z,21.15
2017-03-11T14:25:25.533Z,21.15
2017-03-11T14:26:36.578Z,21.24
2017-03-11T14:27:46.530Z,21.44
2017-03-11T14:28:57.331Z,21.15
2017-03-11T14:30:07.725Z,21.15
2017-03-11T14:31:18.138Z,21.15
2017-03-11T14:32:29.199Z,21.15
2017-03-11T14:33:39.168Z,21.24
2017-03-11T14:34:49.516Z,21.15
2017-03-11T14:36:00.266Z,21.34
2017-03-11T14:37:10.639Z,21.44
2017-03-11T14:38:21.650Z,21.15
2017-03-11T14:39:32.025Z,21.24
2017-03-11T14:40:42.857Z,21.24
2017-03-11T14:41:53.237Z,21.15
2017-03-11T14:43:03.999Z,21.44
2017-03-11T14:44:15.087Z,21.34
2017-03-11T14:45:25.469Z,21.24
2017-03-11T14:46:35.856Z,21.24
2017-03-11T14:47:45.807Z,21.44
2017-03-11T14:48:56.574Z,21.34
2017-03-11T14:50:07.658Z,21.34
2017-03-11T14:51:17.644Z,21.44
2017-03-11T14:52:28.399Z,21.34
2017-03-11T14:53:39.158Z,21.34
2017-03-11T14:54:49.564Z,21.44
2017-03-11T14:56:00.169Z,21.44
2017-03-11T14:57:10.939Z,21.34
2017-03-11T14:58:21.308Z,21.34
2017-03-11T14:59:31.667Z,21.34
2017-03-11T15:00:42.425Z,21.34
2017-03-11T15:01:53.081Z,21.44
2017-03-11T15:03:03.861Z,21.44
2017-03-11T15:04:13.429Z,21.44
2017-03-11T15:05:24.212Z,21.34
2017-03-11T15:06:34.562Z,21.44
2017-03-11T15:07:45.651Z,21.44
2017-03-11T15:08:56.476Z,21.34
2017-03-11T15:10:06.911Z,21.44
2017-03-11T15:11:17.282Z,21.44